Time;durP1;ratioP1;P1;durP2;ratioP2;P2;SDS_P1;SDS_P2;PMS_P1;PMS_P2;Temp;Humidity;BMP_temperature;BMP_pressure;BME280_temperature;BME280_humidity;BME280_pressure;Samples;Min_cycle;Max_cycle;Signal;HPM_P1;HPM_P2
2020/12/06 00:01:31;;;;;;;22.17;13.20;;;;;;;;;;5013469;28;20651;-51
2020/12/06 00:03:57;;;;;;;20.70;13.63;;;;;;;;;;5014595;28;20267;-52
2020/12/06 00:06:23;;;;;;;20.50;13.20;;;;;;;;;;5015043;28;20578;-51
2020/12/06 00:08:52;;;;;;;20.27;12.83;;;;;;;;;;5014604;28;20243;-53
2020/12/06 00:11:19;;;;;;;19.60;12.32;;;;;;;;;;5014574;28;20770;-52
2020/12/06 00:13:45;;;;;;;17.00;12.90;;;;;;;;;;5013438;28;20874;-51
2020/12/06 00:16:15;;;;;;;17.13;11.40;;;;;;;;;;5014381;28;20724;-52
2020/12/06 00:18:42;;;;;;;18.50;11.75;;;;;;;;;;5014513;28;20177;-52
2020/12/06 00:21:15;;;;;;;19.02;12.98;;;;;;;;;;5014159;28;20248;-52
2020/12/06 00:23:41;;;;;;;16.88;12.90;;;;;;;;;;5014132;28;20182;-52
2020/12/06 00:26:07;;;;;;;19.35;12.93;;;;;;;;;;5013489;28;20175;-53
2020/12/06 00:28:33;;;;;;;19.70;12.77;;;;;;;;;;5014404;28;20193;-52
2020/12/06 00:30:59;;;;;;;17.23;12.30;;;;;;;;;;5014000;28;20403;-53
2020/12/06 00:33:25;;;;;;;17.40;12.37;;;;;;;;;;5013925;28;20190;-53
2020/12/06 00:35:51;;;;;;;17.83;12.07;;;;;;;;;;5014140;28;20415;-54
2020/12/06 00:38:17;;;;;;;20.40;13.77;;;;;;;;;;5013951;28;20174;-52
2020/12/06 00:40:43;;;;;;;17.67;12.30;;;;;;;;;;5013958;28;20291;-53
2020/12/06 00:43:09;;;;;;;18.80;12.83;;;;;;;;;;5013654;28;20403;-51
2020/12/06 00:45:34;;;;;;;19.73;11.63;;;;;;;;;;5013950;28;20426;-51
2020/12/06 00:48:00;;;;;;;14.27;10.80;;;;;;;;;;5013805;28;20433;-52
2020/12/06 00:50:26;;;;;;;18.00;12.63;;;;;;;;;;5013879;28;20404;-53
2020/12/06 00:52:52;;;;;;;15.57;10.47;;;;;;;;;;5013528;28;20499;-52
2020/12/06 00:55:18;;;;;;;19.00;12.20;;;;;;;;;;5012913;28;20455;-52
2020/12/06 00:57:44;;;;;;;21.98;12.73;;;;;;;;;;5013164;28;20521;-52
2020/12/06 01:00:12;;;;;;;17.97;11.60;;;;;;;;;;5013565;28;20288;-53
2020/12/06 01:02:38;;;;;;;16.90;11.65;;;;;;;;;;5013454;28;20908;-54
2020/12/06 01:05:04;;;;;;;18.13;10.98;;;;;;;;;;5013524;28;20701;-54
2020/12/06 01:07:34;;;;;;;19.13;11.95;;;;;;;;;;5013585;28;20172;-53
2020/12/06 01:09:59;;;;;;;18.85;12.77;;;;;;;;;;5013451;28;20515;-53
2020/12/06 01:12:25;;;;;;;17.80;12.70;;;;;;;;;;5012675;28;20227;-52
2020/12/06 01:14:51;;;;;;;15.13;11.10;;;;;;;;;;5013266;28;20929;-53
2020/12/06 01:17:17;;;;;;;17.53;12.63;;;;;;;;;;5013392;28;20407;-51
2020/12/06 01:19:43;;;;;;;18.88;11.73;;;;;;;;;;5013209;28;20478;-53
2020/12/06 01:22:09;;;;;;;17.10;11.10;;;;;;;;;;5012400;28;20196;-53
2020/12/06 01:25:06;;;;;;;18.90;12.10;;;;;;;;;;5013002;28;20459;-51
2020/12/06 01:27:32;;;;;;;18.13;12.23;;;;;;;;;;5012579;28;20399;-53
2020/12/06 01:29:58;;;;;;;17.20;11.93;;;;;;;;;;5013191;28;20172;-52
2020/12/06 01:32:24;;;;;;;20.95;13.43;;;;;;;;;;5013009;28;20415;-52
2020/12/06 01:34:50;;;;;;;18.47;12.67;;;;;;;;;;5012937;28;20208;-53
2020/12/06 01:37:16;;;;;;;18.80;12.88;;;;;;;;;;5013254;28;20777;-52
2020/12/06 01:39:42;;;;;;;18.35;12.85;;;;;;;;;;5013122;28;20223;-53
2020/12/06 01:42:08;;;;;;;20.30;12.90;;;;;;;;;;5012727;28;20254;-52
2020/12/06 01:44:34;;;;;;;21.27;12.47;;;;;;;;;;5012980;28;20423;-53
2020/12/06 01:47:00;;;;;;;16.07;11.17;;;;;;;;;;5012793;28;20454;-53
2020/12/06 01:49:35;;;;;;;17.52;12.55;;;;;;;;;;5012957;28;20879;-52
2020/12/06 01:52:01;;;;;;;19.38;11.85;;;;;;;;;;5011458;28;20196;-52
2020/12/06 01:54:27;;;;;;;17.42;11.27;;;;;;;;;;5012724;28;20565;-53
2020/12/06 01:56:54;;;;;;;16.35;11.07;;;;;;;;;;5012632;28;20256;-53
2020/12/06 01:59:20;;;;;;;21.27;12.10;;;;;;;;;;5011992;28;20223;-52
2020/12/06 02:01:54;;;;;;;17.40;11.73;;;;;;;;;;5011909;28;20164;-53
2020/12/06 02:04:20;;;;;;;20.00;12.00;;;;;;;;;;5011070;28;20798;-53
2020/12/06 02:06:46;;;;;;;18.20;12.87;;;;;;;;;;5011812;28;20180;-52
2020/12/06 02:09:12;;;;;;;19.67;12.60;;;;;;;;;;5012378;28;20432;-52
2020/12/06 02:11:38;;;;;;;16.13;12.77;;;;;;;;;;5012476;28;20181;-53
2020/12/06 02:14:04;;;;;;;17.73;11.25;;;;;;;;;;5011985;28;20214;-51
2020/12/06 02:16:30;;;;;;;19.60;13.25;;;;;;;;;;5012383;28;20251;-53
2020/12/06 02:18:56;;;;;;;18.13;12.90;;;;;;;;;;5012164;28;20199;-52
2020/12/06 02:21:22;;;;;;;20.87;13.33;;;;;;;;;;5012006;28;20227;-52
2020/12/06 02:23:48;;;;;;;19.17;12.20;;;;;;;;;;5010449;28;20455;-52
2020/12/06 02:26:14;;;;;;;16.03;11.00;;;;;;;;;;5011242;28;20432;-51
2020/12/06 02:28:40;;;;;;;28.40;17.00;;;;;;;;;;5011991;28;20406;-52
2020/12/06 02:31:06;;;;;;;25.27;12.68;;;;;;;;;;5012061;28;20403;-53
2020/12/06 02:33:32;;;;;;;19.87;12.77;;;;;;;;;;5011566;28;20203;-53
2020/12/06 02:35:58;;;;;;;20.90;12.50;;;;;;;;;;5011851;28;20407;-53
2020/12/06 02:38:24;;;;;;;21.05;13.23;;;;;;;;;;5012105;28;20461;-52
2020/12/06 02:40:50;;;;;;;19.45;12.27;;;;;;;;;;5011755;28;20200;-52
2020/12/06 02:43:16;;;;;;;22.23;12.45;;;;;;;;;;5011598;28;20641;-52
2020/12/06 02:45:41;;;;;;;22.83;13.33;;;;;;;;;;5011702;28;20229;-53
2020/12/06 02:48:07;;;;;;;19.40;12.73;;;;;;;;;;5010906;28;20426;-52
2020/12/06 02:50:34;;;;;;;20.98;13.68;;;;;;;;;;5011393;28;20956;-52
2020/12/06 02:52:59;;;;;;;21.23;12.48;;;;;;;;;;5011501;28;20168;-53
2020/12/06 02:55:26;;;;;;;19.70;13.40;;;;;;;;;;5012097;28;20230;-53
2020/12/06 02:57:52;;;;;;;22.13;14.57;;;;;;;;;;5011732;28;20403;-52
2020/12/06 03:00:19;;;;;;;20.55;13.05;;;;;;;;;;5011251;28;20567;-53
2020/12/06 03:02:45;;;;;;;20.42;12.88;;;;;;;;;;5011411;28;20221;-52
2020/12/06 03:05:11;;;;;;;20.77;13.23;;;;;;;;;;5011373;28;20593;-53
2020/12/06 03:07:36;;;;;;;18.47;12.77;;;;;;;;;;5011324;28;20496;-52
2020/12/06 03:10:06;;;;;;;21.27;12.93;;;;;;;;;;5011498;28;20482;-52
2020/12/06 03:12:35;;;;;;;19.48;12.68;;;;;;;;;;5010951;28;20947;-53
2020/12/06 03:15:02;;;;;;;17.75;13.07;;;;;;;;;;5011317;28;20191;-53
2020/12/06 03:17:28;;;;;;;20.45;12.95;;;;;;;;;;5010478;28;20187;-53
2020/12/06 03:19:54;;;;;;;21.93;13.67;;;;;;;;;;5011238;28;20196;-53
2020/12/06 03:22:20;;;;;;;18.58;13.18;;;;;;;;;;5010980;28;20868;-53
2020/12/06 03:24:46;;;;;;;22.35;13.13;;;;;;;;;;5011354;28;20185;-52
2020/12/06 03:27:12;;;;;;;21.07;12.30;;;;;;;;;;5011281;28;20656;-52
2020/12/06 03:29:38;;;;;;;20.67;12.77;;;;;;;;;;5011455;28;20411;-52
2020/12/06 03:32:04;;;;;;;19.20;13.20;;;;;;;;;;5011022;28;20487;-53
2020/12/06 03:34:30;;;;;;;22.52;13.90;;;;;;;;;;5011144;28;20444;-53
2020/12/06 03:36:56;;;;;;;17.67;12.17;;;;;;;;;;5011166;28;20172;-53
2020/12/06 03:39:21;;;;;;;21.10;11.50;;;;;;;;;;5011233;28;20415;-53
2020/12/06 03:41:47;;;;;;;16.40;11.27;;;;;;;;;;5011302;28;20400;-53
2020/12/06 03:44:13;;;;;;;14.40;11.07;;;;;;;;;;5010952;28;20975;-53
2020/12/06 03:46:39;;;;;;;19.20;12.77;;;;;;;;;;5010419;28;20932;-53
2020/12/06 03:49:05;;;;;;;18.90;13.37;;;;;;;;;;5010777;28;20490;-53
2020/12/06 03:51:31;;;;;;;18.03;13.67;;;;;;;;;;5011052;28;20899;-53
2020/12/06 03:53:57;;;;;;;19.85;12.40;;;;;;;;;;5010586;28;20835;-52
2020/12/06 03:56:23;;;;;;;20.93;14.13;;;;;;;;;;5011029;28;20173;-52
2020/12/06 03:58:49;;;;;;;21.97;13.73;;;;;;;;;;5010734;28;20402;-53
2020/12/06 04:01:15;;;;;;;18.95;12.32;;;;;;;;;;5010683;28;20509;-53
2020/12/06 04:03:41;;;;;;;18.03;11.70;;;;;;;;;;5010592;28;20609;-53
2020/12/06 04:06:07;;;;;;;18.73;11.67;;;;;;;;;;5010724;28;20437;-53
2020/12/06 04:08:33;;;;;;;19.43;11.87;;;;;;;;;;5010787;28;20487;-53
2020/12/06 04:10:59;;;;;;;21.97;13.70;;;;;;;;;;5010580;28;20413;-53
2020/12/06 04:13:25;;;;;;;20.07;14.23;;;;;;;;;;5010461;28;20430;-53
2020/12/06 04:15:51;;;;;;;24.90;15.17;;;;;;;;;;5010518;28;20407;-53
2020/12/06 04:18:17;;;;;;;25.73;15.80;;;;;;;;;;5009900;28;20423;-52
2020/12/06 04:20:43;;;;;;;19.90;14.30;;;;;;;;;;5010405;28;20838;-52
2020/12/06 04:23:09;;;;;;;25.77;15.73;;;;;;;;;;5010488;28;20431;-53
2020/12/06 04:25:35;;;;;;;26.33;16.53;;;;;;;;;;5009816;28;20447;-53
2020/12/06 04:28:01;;;;;;;29.87;18.00;;;;;;;;;;5010646;28;20907;-53
2020/12/06 04:30:27;;;;;;;31.43;16.40;;;;;;;;;;5010492;28;20410;-53
2020/12/06 04:32:52;;;;;;;25.20;16.93;;;;;;;;;;5010200;28;20418;-53
2020/12/06 04:35:18;;;;;;;27.07;17.50;;;;;;;;;;5010376;28;20447;-53
2020/12/06 04:37:44;;;;;;;27.73;16.70;;;;;;;;;;5010446;28;20404;-53
2020/12/06 04:40:10;;;;;;;31.33;18.10;;;;;;;;;;5010467;28;20978;-53
2020/12/06 04:42:36;;;;;;;29.17;17.80;;;;;;;;;;5010114;28;20168;-52
2020/12/06 04:45:03;;;;;;;28.88;17.10;;;;;;;;;;5010324;28;20418;-53
2020/12/06 04:47:47;;;;;;;28.25;17.83;;;;;;;;;;5010883;28;20240;-53
2020/12/06 04:50:15;;;;;;;25.45;16.08;;;;;;;;;;5014100;28;20269;-53
2020/12/06 04:52:45;;;;;;;28.67;17.85;;;;;;;;;;5013603;28;20182;-53
2020/12/06 04:55:14;;;;;;;31.23;18.40;;;;;;;;;;5013889;28;20199;-53
2020/12/06 04:57:40;;;;;;;31.35;18.67;;;;;;;;;;5013634;28;20167;-53
2020/12/06 05:00:10;;;;;;;29.02;17.92;;;;;;;;;;5013780;28;20207;-53
2020/12/06 05:02:41;;;;;;;27.38;18.17;;;;;;;;;;5013448;28;20210;-53
2020/12/06 05:05:07;;;;;;;27.83;17.55;;;;;;;;;;5013743;28;20189;-53
2020/12/06 05:07:34;;;;;;;28.05;17.67;;;;;;;;;;5013740;28;20166;-53
2020/12/06 05:10:00;;;;;;;26.08;16.42;;;;;;;;;;5013553;28;20255;-53
2020/12/06 05:12:26;;;;;;;31.92;17.95;;;;;;;;;;5013396;28;20224;-53
2020/12/06 05:14:52;;;;;;;28.02;18.00;;;;;;;;;;5013605;28;20607;-52
2020/12/06 05:17:19;;;;;;;26.35;16.88;;;;;;;;;;5013573;28;20172;-53
2020/12/06 05:19:46;;;;;;;33.83;16.83;;;;;;;;;;5012358;28;20197;-53
2020/12/06 05:22:12;;;;;;;26.60;16.42;;;;;;;;;;5013306;28;20817;-52
2020/12/06 05:24:37;;;;;;;25.70;16.50;;;;;;;;;;5013267;28;20240;-52
2020/12/06 05:27:03;;;;;;;26.97;17.80;;;;;;;;;;5013692;28;20507;-52
2020/12/06 05:29:30;;;;;;;24.57;17.70;;;;;;;;;;5013417;28;20405;-53
2020/12/06 05:32:00;;;;;;;28.00;16.10;;;;;;;;;;5013227;28;20404;-52
2020/12/06 05:34:26;;;;;;;24.20;15.80;;;;;;;;;;5013078;28;20217;-52
2020/12/06 05:36:52;;;;;;;30.30;17.47;;;;;;;;;;5013328;28;20318;-52
2020/12/06 05:39:22;;;;;;;32.23;17.40;;;;;;;;;;5013051;28;20420;-52
2020/12/06 05:41:48;;;;;;;25.67;16.90;;;;;;;;;;5012999;28;20405;-52
2020/12/06 05:44:20;;;;;;;24.35;15.98;;;;;;;;;;5012927;28;20275;-53
2020/12/06 05:46:46;;;;;;;30.95;19.08;;;;;;;;;;5012871;28;20632;-53
2020/12/06 05:49:11;;;;;;;30.63;17.30;;;;;;;;;;5010890;28;20258;-52
2020/12/06 05:51:39;;;;;;;26.07;17.07;;;;;;;;;;5012580;28;20426;-53
2020/12/06 05:54:06;;;;;;;32.90;19.60;;;;;;;;;;5012488;28;20914;-53
2020/12/06 05:56:32;;;;;;;27.65;18.02;;;;;;;;;;5012577;28;20647;-52
2020/12/06 05:58:58;;;;;;;32.42;17.98;;;;;;;;;;5011787;28;20672;-53
2020/12/06 06:01:24;;;;;;;33.47;19.20;;;;;;;;;;5012289;28;20204;-53
2020/12/06 06:03:51;;;;;;;35.47;20.63;;;;;;;;;;5012378;28;20445;-53
2020/12/06 06:06:20;;;;;;;36.50;19.33;;;;;;;;;;5011516;28;20427;-52
2020/12/06 06:08:48;;;;;;;31.52;17.58;;;;;;;;;;5011750;28;20537;-53
2020/12/06 06:11:22;;;;;;;29.90;17.38;;;;;;;;;;5012326;28;20256;-53
2020/12/06 06:13:58;;;;;;;31.55;18.75;;;;;;;;;;5012033;28;20200;-53
2020/12/06 06:16:25;;;;;;;27.98;17.88;;;;;;;;;;5012323;28;20641;-53
2020/12/06 06:18:52;;;;;;;34.30;20.00;;;;;;;;;;5012055;28;20202;-53
2020/12/06 06:21:19;;;;;;;29.15;18.38;;;;;;;;;;5012122;28;20256;-52
2020/12/06 06:23:46;;;;;;;30.30;19.15;;;;;;;;;;5011860;28;20189;-53
2020/12/06 06:26:13;;;;;;;35.08;18.80;;;;;;;;;;5012207;28;20231;-53
2020/12/06 06:28:39;;;;;;;38.25;19.98;;;;;;;;;;5012011;28;20621;-53
2020/12/06 06:31:05;;;;;;;34.83;20.40;;;;;;;;;;5011978;28;20174;-53
2020/12/06 06:33:34;;;;;;;30.88;18.65;;;;;;;;;;5011473;28;20242;-53
2020/12/06 06:36:01;;;;;;;33.53;19.63;;;;;;;;;;5012024;28;20176;-53
2020/12/06 06:38:27;;;;;;;34.25;20.38;;;;;;;;;;5011094;28;20420;-53
2020/12/06 06:40:56;;;;;;;32.65;19.15;;;;;;;;;;5011756;28;20199;-53
2020/12/06 06:43:27;;;;;;;33.17;19.98;;;;;;;;;;5011418;28;20531;-52
2020/12/06 06:45:53;;;;;;;35.38;21.40;;;;;;;;;;5011779;28;20812;-53
2020/12/06 06:48:19;;;;;;;36.70;20.90;;;;;;;;;;5011779;28;20195;-52
2020/12/06 06:50:48;;;;;;;34.90;19.95;;;;;;;;;;5011650;28;20411;-52
2020/12/06 06:53:16;;;;;;;34.83;19.98;;;;;;;;;;5011566;28;20171;-53
2020/12/06 06:55:50;;;;;;;30.90;18.30;;;;;;;;;;5011524;28;20166;-52
2020/12/06 06:58:17;;;;;;;31.42;19.33;;;;;;;;;;5011638;28;20177;-53
2020/12/06 07:00:43;;;;;;;33.03;20.95;;;;;;;;;;5011200;28;20198;-53
2020/12/06 07:03:12;;;;;;;34.08;21.30;;;;;;;;;;5011419;28;20161;-53
2020/12/06 07:05:38;;;;;;;37.00;21.38;;;;;;;;;;5011504;28;20172;-53
2020/12/06 07:08:17;;;;;;;37.17;21.92;;;;;;;;;;5011566;28;20171;-53
2020/12/06 07:10:43;;;;;;;38.20;19.83;;;;;;;;;;5009868;28;20216;-53
2020/12/06 07:13:09;;;;;;;37.92;22.08;;;;;;;;;;5011152;28;20180;-53
2020/12/06 07:15:35;;;;;;;35.20;19.85;;;;;;;;;;5011289;28;20204;-53
2020/12/06 07:18:02;;;;;;;35.10;21.25;;;;;;;;;;5011346;28;20700;-53
2020/12/06 07:20:28;;;;;;;38.17;22.40;;;;;;;;;;5011072;28;20208;-53
2020/12/06 07:22:55;;;;;;;36.42;22.10;;;;;;;;;;5011159;28;20166;-53
2020/12/06 07:25:23;;;;;;;34.95;22.15;;;;;;;;;;5011121;28;20589;-53
2020/12/06 07:27:49;;;;;;;37.60;22.38;;;;;;;;;;5011032;28;20173;-53
2020/12/06 07:30:16;;;;;;;36.75;21.55;;;;;;;;;;5011051;28;20195;-53
2020/12/06 07:32:43;;;;;;;39.22;21.75;;;;;;;;;;5010938;28;20674;-52
2020/12/06 07:35:10;;;;;;;40.35;20.98;;;;;;;;;;5011196;28;20207;-53
2020/12/06 07:37:36;;;;;;;40.20;23.48;;;;;;;;;;5011330;28;20671;-53
2020/12/06 07:40:12;;;;;;;46.58;22.35;;;;;;;;;;5010327;28;20193;-53
2020/12/06 07:42:38;;;;;;;38.15;22.40;;;;;;;;;;5010946;28;20178;-53
2020/12/06 07:45:06;;;;;;;36.90;23.15;;;;;;;;;;5010974;28;20194;-53
2020/12/06 07:47:32;;;;;;;35.72;22.67;;;;;;;;;;5010827;28;20174;-53
2020/12/06 07:49:59;;;;;;;42.50;23.15;;;;;;;;;;5011030;28;20254;-52
2020/12/06 07:52:33;;;;;;;39.17;22.73;;;;;;;;;;5010589;28;20179;-52
2020/12/06 07:54:59;;;;;;;40.45;23.80;;;;;;;;;;5011104;28;20192;-52
2020/12/06 07:57:28;;;;;;;47.38;24.23;;;;;;;;;;5010873;28;20182;-53
2020/12/06 07:59:55;;;;;;;50.25;25.23;;;;;;;;;;5010707;28;20199;-52
2020/12/06 08:02:22;;;;;;;45.20;25.30;;;;;;;;;;5010679;28;20226;-52
2020/12/06 08:04:48;;;;;;;41.63;23.58;;;;;;;;;;5010674;28;20210;-52
2020/12/06 08:07:17;;;;;;;44.10;25.52;;;;;;;;;;5010777;28;20197;-53
2020/12/06 08:09:44;;;;;;;41.50;23.13;;;;;;;;;;5010685;28;20234;-53
2020/12/06 08:12:11;;;;;;;40.20;22.27;;;;;;;;;;5009498;28;20531;-53
2020/12/06 08:14:38;;;;;;;42.88;26.17;;;;;;;;;;5010530;28;20203;-52
2020/12/06 08:17:04;;;;;;;46.88;24.63;;;;;;;;;;5010697;28;20206;-52
2020/12/06 08:19:31;;;;;;;45.67;25.85;;;;;;;;;;5010457;28;20179;-53
2020/12/06 08:22:01;;;;;;;44.58;25.75;;;;;;;;;;5010649;28;20182;-53
2020/12/06 08:24:31;;;;;;;43.38;23.90;;;;;;;;;;5014058;28;20198;-52
2020/12/06 08:26:57;;;;;;;40.47;24.13;;;;;;;;;;5014493;28;20174;-52
2020/12/06 08:29:43;;;;;;;44.15;24.63;;;;;;;;;;5014382;28;20159;-53
2020/12/06 08:32:09;;;;;;;46.33;24.02;;;;;;;;;;5013987;28;20199;-52
2020/12/06 08:34:35;;;;;;;40.05;23.77;;;;;;;;;;5014094;28;20854;-52
2020/12/06 08:37:17;;;;;;;41.45;23.20;;;;;;;;;;5014383;28;20512;-53
2020/12/06 08:39:43;;;;;;;41.00;23.25;;;;;;;;;;5013391;28;20202;-53
2020/12/06 08:42:16;;;;;;;44.42;25.45;;;;;;;;;;5013149;28;20189;-52
2020/12/06 08:44:56;;;;;;;49.13;25.95;;;;;;;;;;5013946;28;20182;-52
2020/12/06 08:47:22;;;;;;;38.17;22.83;;;;;;;;;;5013823;28;20176;-52
2020/12/06 08:49:48;;;;;;;43.50;22.30;;;;;;;;;;5013979;28;20233;-53
2020/12/06 08:52:21;;;;;;;41.78;23.35;;;;;;;;;;5013509;28;20183;-53
2020/12/06 08:54:49;;;;;;;37.75;23.00;;;;;;;;;;5014446;28;20210;-52
2020/12/06 08:57:15;;;;;;;41.15;23.83;;;;;;;;;;5013657;28;20194;-53
2020/12/06 08:59:41;;;;;;;39.97;23.93;;;;;;;;;;5013817;28;20203;-52
2020/12/06 09:02:08;;;;;;;40.88;23.80;;;;;;;;;;5013426;28;20486;-51
2020/12/06 09:04:34;;;;;;;45.03;22.85;;;;;;;;;;5013832;28;20223;-51
2020/12/06 09:07:00;;;;;;;43.88;22.30;;;;;;;;;;5013667;28;20191;-51
2020/12/06 09:09:26;;;;;;;35.60;21.70;;;;;;;;;;5013056;28;20631;-51
2020/12/06 09:11:53;;;;;;;44.07;26.07;;;;;;;;;;5012340;28;20499;-51
2020/12/06 09:14:19;;;;;;;41.38;22.05;;;;;;;;;;5013395;28;20421;-50
2020/12/06 09:16:45;;;;;;;37.38;23.33;;;;;;;;;;5013552;28;20174;-51
2020/12/06 09:19:11;;;;;;;44.83;23.73;;;;;;;;;;5013470;28;20207;-51
2020/12/06 09:21:37;;;;;;;39.87;23.30;;;;;;;;;;5013378;28;20239;-51
2020/12/06 09:24:03;;;;;;;41.20;23.27;;;;;;;;;;5013065;28;20434;-51
2020/12/06 09:26:29;;;;;;;48.22;25.95;;;;;;;;;;5013321;28;20410;-51
2020/12/06 09:28:55;;;;;;;40.03;23.67;;;;;;;;;;5013311;28;20255;-51
2020/12/06 09:31:24;;;;;;;40.73;23.00;;;;;;;;;;5013232;28;20418;-51
2020/12/06 09:33:50;;;;;;;38.78;22.83;;;;;;;;;;5012318;28;20828;-52
2020/12/06 09:36:16;;;;;;;39.85;24.75;;;;;;;;;;5013225;28;20613;-54
2020/12/06 09:38:42;;;;;;;34.92;22.52;;;;;;;;;;5012992;28;20522;-51
2020/12/06 09:41:12;;;;;;;44.43;24.90;;;;;;;;;;5011781;28;20202;-52
2020/12/06 09:43:38;;;;;;;41.60;24.88;;;;;;;;;;5013026;28;20993;-51
2020/12/06 09:46:04;;;;;;;43.13;23.58;;;;;;;;;;5013312;28;20169;-54
2020/12/06 09:48:30;;;;;;;41.13;24.57;;;;;;;;;;5013166;28;20231;-51
2020/12/06 09:50:56;;;;;;;42.73;26.90;;;;;;;;;;5012948;28;20406;-51
2020/12/06 09:53:22;;;;;;;45.90;25.10;;;;;;;;;;5012775;28;20411;-51
2020/12/06 09:55:48;;;;;;;48.40;26.40;;;;;;;;;;5012946;28;20411;-51
2020/12/06 09:58:14;;;;;;;43.53;26.40;;;;;;;;;;5012861;28;20796;-51
2020/12/06 10:00:41;;;;;;;48.33;27.40;;;;;;;;;;5012492;28;20461;-51
2020/12/06 10:03:07;;;;;;;46.95;26.75;;;;;;;;;;5011194;28;20410;-51
2020/12/06 10:05:33;;;;;;;49.60;26.33;;;;;;;;;;5012396;28;20206;-51
2020/12/06 10:07:59;;;;;;;44.17;26.93;;;;;;;;;;5012520;28;20402;-51
2020/12/06 10:10:25;;;;;;;49.93;27.53;;;;;;;;;;5011690;28;20790;-52
2020/12/06 10:12:51;;;;;;;53.27;31.03;;;;;;;;;;5012094;28;20845;-51
2020/12/06 10:15:17;;;;;;;51.93;28.23;;;;;;;;;;5012135;28;20451;-52
2020/12/06 10:17:43;;;;;;;55.10;31.17;;;;;;;;;;5012344;28;20400;-51
2020/12/06 10:20:09;;;;;;;55.70;30.07;;;;;;;;;;5012236;28;20534;-52
2020/12/06 10:22:35;;;;;;;56.05;30.35;;;;;;;;;;5011802;28;20400;-51
2020/12/06 10:25:01;;;;;;;49.78;27.75;;;;;;;;;;5012100;28;20188;-51
2020/12/06 10:27:27;;;;;;;54.47;29.50;;;;;;;;;;5012009;28;20175;-51
2020/12/06 10:29:53;;;;;;;56.35;31.23;;;;;;;;;;5012171;28;20497;-51
2020/12/06 10:32:19;;;;;;;52.70;29.80;;;;;;;;;;5011693;28;20295;-51
2020/12/06 10:34:45;;;;;;;64.20;30.93;;;;;;;;;;5011840;28;20449;-55
2020/12/06 10:37:11;;;;;;;54.88;29.40;;;;;;;;;;5011754;28;20411;-52
2020/12/06 10:39:37;;;;;;;58.53;31.42;;;;;;;;;;5011540;28;20589;-53
2020/12/06 10:42:03;;;;;;;64.90;30.97;;;;;;;;;;5011402;28;20628;-55
2020/12/06 10:44:29;;;;;;;63.40;32.77;;;;;;;;;;5011725;28;20419;-53
2020/12/06 10:46:55;;;;;;;62.97;32.77;;;;;;;;;;5011289;28;20752;-51
2020/12/06 10:49:21;;;;;;;76.97;34.70;;;;;;;;;;5011610;28;20395;-51
2020/12/06 10:51:48;;;;;;;69.22;32.88;;;;;;;;;;5011667;28;20411;-51
2020/12/06 10:54:14;;;;;;;69.40;33.40;;;;;;;;;;5011214;28;20202;-51
2020/12/06 10:56:40;;;;;;;64.80;32.83;;;;;;;;;;5011674;28;20200;-51
2020/12/06 10:59:06;;;;;;;71.15;33.50;;;;;;;;;;5011669;28;20176;-51
2020/12/06 11:01:33;;;;;;;67.93;33.30;;;;;;;;;;5011449;28;20207;-50
2020/12/06 11:03:59;;;;;;;63.53;32.10;;;;;;;;;;5011259;28;20480;-51
2020/12/06 11:06:25;;;;;;;75.35;33.92;;;;;;;;;;5011437;28;20175;-51
2020/12/06 11:08:51;;;;;;;69.15;33.72;;;;;;;;;;5011355;28;20183;-51
2020/12/06 11:11:18;;;;;;;79.97;35.85;;;;;;;;;;5010547;28;20302;-51
2020/12/06 11:13:45;;;;;;;72.95;34.53;;;;;;;;;;5011110;28;20272;-51
2020/12/06 11:16:14;;;;;;;78.28;33.03;;;;;;;;;;5011510;28;20195;-51
2020/12/06 11:18:40;;;;;;;80.88;34.88;;;;;;;;;;5011361;28;20176;-51
2020/12/06 11:21:06;;;;;;;79.43;34.43;;;;;;;;;;5011527;28;20592;-52
2020/12/06 11:23:32;;;;;;;95.60;38.00;;;;;;;;;;5010985;28;20407;-52
2020/12/06 11:25:58;;;;;;;76.93;36.90;;;;;;;;;;5011136;28;20411;-52
2020/12/06 11:28:24;;;;;;;72.20;32.30;;;;;;;;;;5011189;28;20471;-53
2020/12/06 11:30:50;;;;;;;78.50;33.90;;;;;;;;;;5011029;28;20490;-55
2020/12/06 11:33:16;;;;;;;69.20;34.00;;;;;;;;;;5010853;28;20438;-51
2020/12/06 11:35:42;;;;;;;68.10;34.40;;;;;;;;;;5011192;28;20412;-51
2020/12/06 11:38:09;;;;;;;61.78;32.90;;;;;;;;;;5011311;28;20399;-54
2020/12/06 11:40:35;;;;;;;64.85;30.27;;;;;;;;;;5010407;28;20214;-55
2020/12/06 11:43:00;;;;;;;58.53;31.63;;;;;;;;;;5011117;28;20176;-54
2020/12/06 11:45:26;;;;;;;58.67;28.67;;;;;;;;;;5011313;28;20499;-52
2020/12/06 11:47:53;;;;;;;54.57;29.00;;;;;;;;;;5011072;28;20919;-51
2020/12/06 11:50:19;;;;;;;54.63;29.13;;;;;;;;;;5011048;28;20482;-52
2020/12/06 11:52:45;;;;;;;58.85;31.08;;;;;;;;;;5010648;28;20195;-52
2020/12/06 11:55:11;;;;;;;54.80;28.88;;;;;;;;;;5010909;28;20283;-53
2020/12/06 11:57:37;;;;;;;54.17;29.17;;;;;;;;;;5013488;28;20180;-53
2020/12/06 12:00:07;;;;;;;53.22;31.02;;;;;;;;;;5014845;28;20215;-52
2020/12/06 12:02:33;;;;;;;51.80;29.10;;;;;;;;;;5014417;28;20168;-51
2020/12/06 12:04:59;;;;;;;56.27;28.37;;;;;;;;;;5014840;28;20253;-52
2020/12/06 12:07:25;;;;;;;53.77;29.67;;;;;;;;;;5014630;28;20411;-52
2020/12/06 12:09:51;;;;;;;54.80;29.50;;;;;;;;;;5014877;28;20573;-52
2020/12/06 12:12:17;;;;;;;50.83;27.60;;;;;;;;;;5013453;28;20937;-51
2020/12/06 12:14:43;;;;;;;52.13;28.85;;;;;;;;;;5013205;28;20525;-51
2020/12/06 12:17:09;;;;;;;49.58;26.58;;;;;;;;;;5014586;28;20172;-51
2020/12/06 12:19:35;;;;;;;49.13;28.52;;;;;;;;;;5014321;28;20621;-52
2020/12/06 12:22:01;;;;;;;58.43;30.60;;;;;;;;;;5014336;28;20170;-52
2020/12/06 12:24:27;;;;;;;55.80;29.20;;;;;;;;;;5014447;28;20493;-51
2020/12/06 12:26:57;;;;;;;63.67;32.75;;;;;;;;;;5014459;28;20238;-51
2020/12/06 12:29:23;;;;;;;53.38;28.48;;;;;;;;;;5014265;28;20539;-50
2020/12/06 12:31:49;;;;;;;53.07;28.47;;;;;;;;;;5014115;28;20186;-51
2020/12/06 12:34:16;;;;;;;53.13;28.17;;;;;;;;;;5013831;28;20454;-51
2020/12/06 12:36:42;;;;;;;55.83;29.25;;;;;;;;;;5014252;28;20422;-51
2020/12/06 12:39:09;;;;;;;47.88;28.17;;;;;;;;;;5014259;28;20203;-51
2020/12/06 12:41:35;;;;;;;51.45;28.17;;;;;;;;;;5013219;28;20265;-50
2020/12/06 12:44:07;;;;;;;54.80;28.70;;;;;;;;;;5013895;28;20193;-51
2020/12/06 12:46:34;;;;;;;52.83;28.05;;;;;;;;;;5013835;28;20245;-51
2020/12/06 12:49:00;;;;;;;49.40;26.85;;;;;;;;;;5014005;28;20247;-51
2020/12/06 12:51:26;;;;;;;47.78;28.10;;;;;;;;;;5013817;28;20559;-52
2020/12/06 12:53:53;;;;;;;49.25;26.77;;;;;;;;;;5013671;28;20195;-53
2020/12/06 12:56:19;;;;;;;50.55;27.38;;;;;;;;;;5013819;28;20188;-51
2020/12/06 12:58:45;;;;;;;43.93;26.20;;;;;;;;;;5013759;28;20171;-51
2020/12/06 13:01:11;;;;;;;44.67;27.20;;;;;;;;;;5013494;28;21074;-51
2020/12/06 13:03:37;;;;;;;47.60;25.00;;;;;;;;;;5013491;28;20505;-51
2020/12/06 13:06:03;;;;;;;52.40;27.83;;;;;;;;;;5013670;28;20403;-51
2020/12/06 13:08:29;;;;;;;50.15;28.55;;;;;;;;;;5012774;28;20400;-51
2020/12/06 13:10:55;;;;;;;52.33;28.90;;;;;;;;;;5012456;28;20186;-55
2020/12/06 13:13:21;;;;;;;47.63;27.97;;;;;;;;;;5012872;28;20407;-52
2020/12/06 13:15:47;;;;;;;47.57;24.70;;;;;;;;;;5013583;28;20447;-51
2020/12/06 13:18:13;;;;;;;49.67;27.33;;;;;;;;;;5013491;28;20391;-51
2020/12/06 13:20:39;;;;;;;45.93;27.17;;;;;;;;;;5012531;28;20746;-52
2020/12/06 13:23:05;;;;;;;47.03;28.23;;;;;;;;;;5013198;28;20408;-52
2020/12/06 13:25:31;;;;;;;46.93;27.60;;;;;;;;;;5013275;28;20759;-51
2020/12/06 13:27:57;;;;;;;50.60;28.83;;;;;;;;;;5013353;28;20399;-52
2020/12/06 13:30:23;;;;;;;52.23;27.60;;;;;;;;;;5013176;28;21156;-51
2020/12/06 13:32:49;;;;;;;50.23;28.87;;;;;;;;;;5013345;28;20886;-51
2020/12/06 13:35:14;;;;;;;56.67;27.40;;;;;;;;;;5013016;28;20450;-51
2020/12/06 13:37:40;;;;;;;51.03;29.20;;;;;;;;;;5013176;28;20418;-51
2020/12/06 13:40:06;;;;;;;63.20;29.07;;;;;;;;;;5012952;28;20537;-51
2020/12/06 13:42:32;;;;;;;51.20;28.60;;;;;;;;;;5011949;28;20437;-51
2020/12/06 13:44:58;;;;;;;49.70;27.90;;;;;;;;;;5012803;28;20430;-51
2020/12/06 13:47:24;;;;;;;44.00;26.77;;;;;;;;;;5013000;28;20798;-51
2020/12/06 13:49:51;;;;;;;49.17;26.97;;;;;;;;;;5012828;28;20407;-51
2020/12/06 13:52:17;;;;;;;45.47;27.40;;;;;;;;;;5012493;28;20450;-51
2020/12/06 13:54:43;;;;;;;47.47;28.20;;;;;;;;;;5012745;28;20193;-51
2020/12/06 13:57:09;;;;;;;49.57;27.73;;;;;;;;;;5012579;28;20410;-51
2020/12/06 13:59:35;;;;;;;46.07;26.27;;;;;;;;;;5012614;28;20407;-51
2020/12/06 14:02:01;;;;;;;57.67;27.50;;;;;;;;;;5009566;28;20427;-51
2020/12/06 14:04:27;;;;;;;54.10;27.10;;;;;;;;;;5008212;28;20795;-51
2020/12/06 14:06:54;;;;;;;53.90;29.13;;;;;;;;;;5018801;28;20426;-51
2020/12/06 14:09:20;;;;;;;46.33;26.05;;;;;;;;;;5030799;28;20407;-51
2020/12/06 14:11:47;;;;;;;51.92;27.88;;;;;;;;;;5013112;28;20207;-52
2020/12/06 14:14:13;;;;;;;50.30;26.80;;;;;;;;;;5011610;28;20205;-53